sensor_id;sensor_type;location;lat;lon;timestamp;P1;durP1;ratioP1;P2;durP2;ratioP2
51618;SDS011;38518;53.164;5.430;2023-08-06T00:00:27;14.55;;;10.43;;
51618;SDS011;38518;53.164;5.430;2023-08-06T00:02:52;12.57;;;10.98;;
51618;SDS011;38518;53.164;5.430;2023-08-06T00:05:18;12.63;;;11.35;;
51618;SDS011;38518;53.164;5.430;2023-08-06T00:07:46;12.85;;;10.90;;
51618;SDS011;38518;53.164;5.430;2023-08-06T00:10:12;13.27;;;10.75;;
51618;SDS011;38518;53.164;5.430;2023-08-06T00:12:38;12.63;;;10.40;;
51618;SDS011;38518;53.164;5.430;2023-08-06T00:15:03;11.48;;;10.40;;
51618;SDS011;38518;53.164;5.430;2023-08-06T00:17:29;11.07;;;10.07;;
51618;SDS011;38518;53.164;5.430;2023-08-06T00:19:55;11.70;;;10.55;;
51618;SDS011;38518;53.164;5.430;2023-08-06T00:22:21;12.25;;;11.05;;
51618;SDS011;38518;53.164;5.430;2023-08-06T00:24:47;14.40;;;9.88;;
51618;SDS011;38518;53.164;5.430;2023-08-06T00:27:12;12.48;;;11.18;;
51618;SDS011;38518;53.164;5.430;2023-08-06T00:29:38;13.75;;;10.50;;
51618;SDS011;38518;53.164;5.430;2023-08-06T00:32:04;12.90;;;11.60;;
51618;SDS011;38518;53.164;5.430;2023-08-06T00:34:29;11.45;;;10.32;;
51618;SDS011;38518;53.164;5.430;2023-08-06T00:36:55;12.38;;;11.23;;
51618;SDS011;38518;53.164;5.430;2023-08-06T00:39:21;11.90;;;10.70;;
51618;SDS011;38518;53.164;5.430;2023-08-06T00:41:46;11.73;;;10.50;;
51618;SDS011;38518;53.164;5.430;2023-08-06T00:44:12;13.50;;;10.73;;
51618;SDS011;38518;53.164;5.430;2023-08-06T00:46:38;12.05;;;10.85;;
51618;SDS011;38518;53.164;5.430;2023-08-06T00:49:04;12.55;;;11.32;;
51618;SDS011;38518;53.164;5.430;2023-08-06T00:51:30;13.48;;;11.07;;
51618;SDS011;38518;53.164;5.430;2023-08-06T00:53:56;13.43;;;12.02;;
51618;SDS011;38518;53.164;5.430;2023-08-06T00:56:22;12.65;;;11.40;;
51618;SDS011;38518;53.164;5.430;2023-08-06T00:58:50;13.20;;;11.80;;
51618;SDS011;38518;53.164;5.430;2023-08-06T01:01:16;13.15;;;11.60;;
51618;SDS011;38518;53.164;5.430;2023-08-06T01:03:41;13.07;;;11.88;;
51618;SDS011;38518;53.164;5.430;2023-08-06T01:06:07;12.77;;;11.57;;
51618;SDS011;38518;53.164;5.430;2023-08-06T01:13:43;13.43;;;12.00;;
51618;SDS011;38518;53.164;5.430;2023-08-06T01:16:15;13.40;;;12.10;;
51618;SDS011;38518;53.164;5.430;2023-08-06T01:18:43;15.45;;;12.95;;
51618;SDS011;38518;53.164;5.430;2023-08-06T01:21:12;14.73;;;12.73;;
51618;SDS011;38518;53.164;5.430;2023-08-06T01:23:38;16.83;;;13.27;;
51618;SDS011;38518;53.164;5.430;2023-08-06T01:28:53;15.98;;;14.38;;
51618;SDS011;38518;53.164;5.430;2023-08-06T01:31:29;17.85;;;13.65;;
51618;SDS011;38518;53.164;5.430;2023-08-06T01:33:58;14.90;;;13.32;;
51618;SDS011;38518;53.164;5.430;2023-08-06T01:36:25;15.45;;;13.95;;
51618;SDS011;38518;53.164;5.430;2023-08-06T01:38:52;16.45;;;14.23;;
51618;SDS011;38518;53.164;5.430;2023-08-06T01:41:18;15.43;;;13.93;;
51618;SDS011;38518;53.164;5.430;2023-08-06T01:43:44;19.10;;;14.70;;
51618;SDS011;38518;53.164;5.430;2023-08-06T01:46:09;18.35;;;14.77;;
51618;SDS011;38518;53.164;5.430;2023-08-06T01:48:35;17.98;;;15.77;;
51618;SDS011;38518;53.164;5.430;2023-08-06T01:51:03;18.40;;;15.90;;
51618;SDS011;38518;53.164;5.430;2023-08-06T01:53:30;22.23;;;17.73;;
51618;SDS011;38518;53.164;5.430;2023-08-06T01:55:56;18.52;;;16.63;;
51618;SDS011;38518;53.164;5.430;2023-08-06T01:58:22;23.75;;;16.25;;
51618;SDS011;38518;53.164;5.430;2023-08-06T02:00:48;20.75;;;17.10;;
51618;SDS011;38518;53.164;5.430;2023-08-06T02:03:14;18.58;;;16.67;;
51618;SDS011;38518;53.164;5.430;2023-08-06T02:05:40;19.85;;;17.60;;
51618;SDS011;38518;53.164;5.430;2023-08-06T02:08:06;21.08;;;18.73;;
51618;SDS011;38518;53.164;5.430;2023-08-06T02:10:32;19.27;;;17.15;;
51618;SDS011;38518;53.164;5.430;2023-08-06T02:12:58;20.80;;;18.17;;
51618;SDS011;38518;53.164;5.430;2023-08-06T02:15:23;21.40;;;18.27;;
51618;SDS011;38518;53.164;5.430;2023-08-06T02:17:49;22.15;;;19.52;;
51618;SDS011;38518;53.164;5.430;2023-08-06T02:20:15;22.73;;;20.40;;
51618;SDS011;38518;53.164;5.430;2023-08-06T02:22:40;21.75;;;18.85;;
51618;SDS011;38518;53.164;5.430;2023-08-06T02:25:06;23.58;;;20.83;;
51618;SDS011;38518;53.164;5.430;2023-08-06T02:27:32;24.38;;;21.27;;
51618;SDS011;38518;53.164;5.430;2023-08-06T02:29:58;25.08;;;20.83;;
51618;SDS011;38518;53.164;5.430;2023-08-06T02:32:24;22.67;;;20.33;;
51618;SDS011;38518;53.164;5.430;2023-08-06T02:34:49;25.05;;;22.35;;
51618;SDS011;38518;53.164;5.430;2023-08-06T02:37:15;24.77;;;21.73;;
51618;SDS011;38518;53.164;5.430;2023-08-06T02:39:41;27.38;;;22.98;;
51618;SDS011;38518;53.164;5.430;2023-08-06T02:42:07;25.45;;;22.75;;
51618;SDS011;38518;53.164;5.430;2023-08-06T02:44:32;25.17;;;22.20;;
51618;SDS011;38518;53.164;5.430;2023-08-06T02:46:59;24.00;;;21.10;;
51618;SDS011;38518;53.164;5.430;2023-08-06T02:49:25;33.90;;;25.00;;
51618;SDS011;38518;53.164;5.430;2023-08-06T02:51:51;33.67;;;25.88;;
51618;SDS011;38518;53.164;5.430;2023-08-06T02:54:17;26.27;;;22.42;;
51618;SDS011;38518;53.164;5.430;2023-08-06T02:56:44;23.77;;;21.05;;
51618;SDS011;38518;53.164;5.430;2023-08-06T02:59:10;28.70;;;24.05;;
51618;SDS011;38518;53.164;5.430;2023-08-06T03:01:36;26.58;;;23.02;;
51618;SDS011;38518;53.164;5.430;2023-08-06T03:04:02;27.50;;;23.25;;
51618;SDS011;38518;53.164;5.430;2023-08-06T03:06:27;30.95;;;23.60;;
51618;SDS011;38518;53.164;5.430;2023-08-06T03:08:53;25.80;;;22.98;;
51618;SDS011;38518;53.164;5.430;2023-08-06T03:11:19;26.02;;;22.85;;
51618;SDS011;38518;53.164;5.430;2023-08-06T03:13:44;27.98;;;23.67;;
51618;SDS011;38518;53.164;5.430;2023-08-06T03:16:10;23.95;;;21.50;;
51618;SDS011;38518;53.164;5.430;2023-08-06T03:18:36;26.10;;;23.38;;
51618;SDS011;38518;53.164;5.430;2023-08-06T03:21:01;29.30;;;23.58;;
51618;SDS011;38518;53.164;5.430;2023-08-06T03:23:27;27.17;;;22.83;;
51618;SDS011;38518;53.164;5.430;2023-08-06T03:25:53;24.30;;;21.67;;
51618;SDS011;38518;53.164;5.430;2023-08-06T03:28:18;32.13;;;25.30;;
51618;SDS011;38518;53.164;5.430;2023-08-06T03:30:44;24.58;;;21.98;;
51618;SDS011;38518;53.164;5.430;2023-08-06T03:33:10;24.40;;;21.77;;
51618;SDS011;38518;53.164;5.430;2023-08-06T03:35:36;26.48;;;23.35;;
51618;SDS011;38518;53.164;5.430;2023-08-06T03:38:02;25.00;;;22.40;;
51618;SDS011;38518;53.164;5.430;2023-08-06T03:40:28;28.25;;;22.95;;
51618;SDS011;38518;53.164;5.430;2023-08-06T03:42:53;22.83;;;20.27;;
51618;SDS011;38518;53.164;5.430;2023-08-06T03:45:19;25.10;;;22.25;;
51618;SDS011;38518;53.164;5.430;2023-08-06T03:47:44;28.23;;;22.55;;
51618;SDS011;38518;53.164;5.430;2023-08-06T03:50:10;24.40;;;21.92;;
51618;SDS011;38518;53.164;5.430;2023-08-06T03:52:36;23.92;;;21.17;;
51618;SDS011;38518;53.164;5.430;2023-08-06T03:55:02;23.83;;;21.23;;
51618;SDS011;38518;53.164;5.430;2023-08-06T03:57:27;24.48;;;21.50;;
51618;SDS011;38518;53.164;5.430;2023-08-06T03:59:53;23.90;;;21.13;;
51618;SDS011;38518;53.164;5.430;2023-08-06T04:02:19;22.98;;;20.67;;
51618;SDS011;38518;53.164;5.430;2023-08-06T04:04:44;23.23;;;20.42;;
51618;SDS011;38518;53.164;5.430;2023-08-06T04:07:10;25.17;;;21.50;;
51618;SDS011;38518;53.164;5.430;2023-08-06T04:09:52;23.45;;;20.95;;
51618;SDS011;38518;53.164;5.430;2023-08-06T04:12:29;29.48;;;23.98;;
51618;SDS011;38518;53.164;5.430;2023-08-06T04:14:55;26.08;;;22.23;;
51618;SDS011;38518;53.164;5.430;2023-08-06T04:17:22;30.80;;;24.08;;
51618;SDS011;38518;53.164;5.430;2023-08-06T04:19:52;24.48;;;21.88;;
51618;SDS011;38518;53.164;5.430;2023-08-06T04:22:19;25.98;;;22.17;;
51618;SDS011;38518;53.164;5.430;2023-08-06T04:24:46;26.02;;;23.02;;
51618;SDS011;38518;53.164;5.430;2023-08-06T04:27:12;23.48;;;20.92;;
51618;SDS011;38518;53.164;5.430;2023-08-06T04:29:39;24.23;;;21.63;;
51618;SDS011;38518;53.164;5.430;2023-08-06T04:32:06;22.92;;;20.52;;
51618;SDS011;38518;53.164;5.430;2023-08-06T04:34:33;31.17;;;22.77;;
51618;SDS011;38518;53.164;5.430;2023-08-06T04:37:00;25.20;;;21.55;;
51618;SDS011;38518;53.164;5.430;2023-08-06T04:39:26;22.95;;;20.35;;
51618;SDS011;38518;53.164;5.430;2023-08-06T04:41:52;23.02;;;20.58;;
51618;SDS011;38518;53.164;5.430;2023-08-06T04:44:18;21.67;;;19.15;;
51618;SDS011;38518;53.164;5.430;2023-08-06T04:46:43;22.15;;;19.75;;
51618;SDS011;38518;53.164;5.430;2023-08-06T04:49:09;22.52;;;20.13;;
51618;SDS011;38518;53.164;5.430;2023-08-06T04:51:35;21.98;;;19.67;;
51618;SDS011;38518;53.164;5.430;2023-08-06T04:54:00;21.75;;;18.15;;
51618;SDS011;38518;53.164;5.430;2023-08-06T04:56:26;22.17;;;18.83;;
51618;SDS011;38518;53.164;5.430;2023-08-06T04:58:52;21.42;;;18.77;;
51618;SDS011;38518;53.164;5.430;2023-08-06T05:01:18;21.40;;;19.10;;
51618;SDS011;38518;53.164;5.430;2023-08-06T05:03:44;21.63;;;19.17;;
51618;SDS011;38518;53.164;5.430;2023-08-06T05:06:09;20.92;;;18.73;;
51618;SDS011;38518;53.164;5.430;2023-08-06T05:08:35;22.65;;;19.00;;
51618;SDS011;38518;53.164;5.430;2023-08-06T05:11:01;20.23;;;17.45;;
51618;SDS011;38518;53.164;5.430;2023-08-06T05:13:27;20.30;;;18.20;;
51618;SDS011;38518;53.164;5.430;2023-08-06T05:15:53;20.83;;;18.63;;
51618;SDS011;38518;53.164;5.430;2023-08-06T05:18:19;20.30;;;18.15;;
51618;SDS011;38518;53.164;5.430;2023-08-06T05:20:45;20.95;;;18.73;;
51618;SDS011;38518;53.164;5.430;2023-08-06T05:23:11;21.17;;;17.83;;
51618;SDS011;38518;53.164;5.430;2023-08-06T05:25:37;19.90;;;17.90;;
51618;SDS011;38518;53.164;5.430;2023-08-06T05:28:03;20.20;;;18.10;;
51618;SDS011;38518;53.164;5.430;2023-08-06T05:30:29;19.40;;;17.40;;
51618;SDS011;38518;53.164;5.430;2023-08-06T05:32:55;19.70;;;17.20;;
51618;SDS011;38518;53.164;5.430;2023-08-06T05:35:21;20.25;;;18.02;;
51618;SDS011;38518;53.164;5.430;2023-08-06T05:37:47;24.73;;;18.13;;
51618;SDS011;38518;53.164;5.430;2023-08-06T05:40:14;18.77;;;16.77;;
51618;SDS011;38518;53.164;5.430;2023-08-06T05:42:40;20.00;;;17.77;;
51618;SDS011;38518;53.164;5.430;2023-08-06T05:45:06;18.02;;;16.30;;
51618;SDS011;38518;53.164;5.430;2023-08-06T05:47:32;18.52;;;16.73;;
51618;SDS011;38518;53.164;5.430;2023-08-06T05:49:58;19.55;;;17.50;;
51618;SDS011;38518;53.164;5.430;2023-08-06T05:52:24;20.05;;;16.92;;
51618;SDS011;38518;53.164;5.430;2023-08-06T05:54:50;17.88;;;15.90;;
51618;SDS011;38518;53.164;5.430;2023-08-06T05:57:15;19.13;;;16.27;;
51618;SDS011;38518;53.164;5.430;2023-08-06T05:59:42;20.95;;;16.63;;
51618;SDS011;38518;53.164;5.430;2023-08-06T06:02:08;18.38;;;16.48;;
51618;SDS011;38518;53.164;5.430;2023-08-06T06:04:33;17.83;;;16.02;;
51618;SDS011;38518;53.164;5.430;2023-08-06T06:06:59;16.52;;;14.88;;
51618;SDS011;38518;53.164;5.430;2023-08-06T06:09:25;19.83;;;16.98;;
51618;SDS011;38518;53.164;5.430;2023-08-06T06:11:50;17.90;;;16.02;;
51618;SDS011;38518;53.164;5.430;2023-08-06T06:14:19;18.08;;;15.93;;
51618;SDS011;38518;53.164;5.430;2023-08-06T06:16:45;17.05;;;15.35;;
51618;SDS011;38518;53.164;5.430;2023-08-06T06:19:11;17.52;;;15.55;;
51618;SDS011;38518;53.164;5.430;2023-08-06T06:21:38;18.40;;;16.40;;
51618;SDS011;38518;53.164;5.430;2023-08-06T06:24:04;18.70;;;15.60;;
51618;SDS011;38518;53.164;5.430;2023-08-06T06:26:31;18.58;;;16.67;;
51618;SDS011;38518;53.164;5.430;2023-08-06T06:28:57;18.17;;;16.38;;
51618;SDS011;38518;53.164;5.430;2023-08-06T06:31:23;19.52;;;16.33;;
51618;SDS011;38518;53.164;5.430;2023-08-06T06:33:48;17.23;;;15.43;;
51618;SDS011;38518;53.164;5.430;2023-08-06T06:36:14;16.80;;;15.23;;
51618;SDS011;38518;53.164;5.430;2023-08-06T06:38:40;17.85;;;15.90;;
51618;SDS011;38518;53.164;5.430;2023-08-06T06:41:05;17.25;;;15.65;;
51618;SDS011;38518;53.164;5.430;2023-08-06T06:43:31;17.88;;;15.98;;
51618;SDS011;38518;53.164;5.430;2023-08-06T06:45:57;16.80;;;14.05;;
51618;SDS011;38518;53.164;5.430;2023-08-06T06:48:27;15.40;;;13.80;;
51618;SDS011;38518;53.164;5.430;2023-08-06T06:50:54;17.23;;;15.43;;
51618;SDS011;38518;53.164;5.430;2023-08-06T06:53:20;15.57;;;14.07;;
51618;SDS011;38518;53.164;5.430;2023-08-06T06:55:46;15.57;;;14.13;;
51618;SDS011;38518;53.164;5.430;2023-08-06T06:58:14;15.95;;;14.38;;
51618;SDS011;38518;53.164;5.430;2023-08-06T07:00:41;15.45;;;14.05;;
51618;SDS011;38518;53.164;5.430;2023-08-06T07:03:07;15.32;;;13.85;;
51618;SDS011;38518;53.164;5.430;2023-08-06T07:05:33;16.85;;;15.20;;
51618;SDS011;38518;53.164;5.430;2023-08-06T07:07:58;17.45;;;15.75;;
51618;SDS011;38518;53.164;5.430;2023-08-06T07:10:25;17.17;;;14.52;;
51618;SDS011;38518;53.164;5.430;2023-08-06T07:12:51;14.57;;;13.07;;
51618;SDS011;38518;53.164;5.430;2023-08-06T07:15:16;14.98;;;13.55;;
51618;SDS011;38518;53.164;5.430;2023-08-06T07:17:43;15.52;;;14.07;;
51618;SDS011;38518;53.164;5.430;2023-08-06T07:20:09;14.73;;;13.32;;
51618;SDS011;38518;53.164;5.430;2023-08-06T07:22:35;14.25;;;12.77;;
51618;SDS011;38518;53.164;5.430;2023-08-06T07:25:01;13.90;;;12.57;;
51618;SDS011;38518;53.164;5.430;2023-08-06T07:27:27;14.27;;;12.88;;
51618;SDS011;38518;53.164;5.430;2023-08-06T07:29:52;14.60;;;12.63;;
51618;SDS011;38518;53.164;5.430;2023-08-06T07:32:18;12.32;;;11.15;;
51618;SDS011;38518;53.164;5.430;2023-08-06T07:34:44;12.68;;;11.32;;
51618;SDS011;38518;53.164;5.430;2023-08-06T07:37:09;11.82;;;10.63;;
51618;SDS011;38518;53.164;5.430;2023-08-06T07:39:35;11.20;;;10.10;;
51618;SDS011;38518;53.164;5.430;2023-08-06T07:42:03;10.73;;;9.73;;
51618;SDS011;38518;53.164;5.430;2023-08-06T07:44:31;12.38;;;10.30;;
51618;SDS011;38518;53.164;5.430;2023-08-06T07:46:56;10.95;;;9.82;;
51618;SDS011;38518;53.164;5.430;2023-08-06T07:49:22;10.93;;;9.90;;
51618;SDS011;38518;53.164;5.430;2023-08-06T07:51:48;9.60;;;8.75;;
51618;SDS011;38518;53.164;5.430;2023-08-06T07:54:13;11.73;;;9.60;;
51618;SDS011;38518;53.164;5.430;2023-08-06T07:56:39;11.80;;;8.48;;
51618;SDS011;38518;53.164;5.430;2023-08-06T07:59:05;9.00;;;8.10;;
51618;SDS011;38518;53.164;5.430;2023-08-06T08:01:30;9.23;;;8.32;;
51618;SDS011;38518;53.164;5.430;2023-08-06T08:03:56;9.68;;;8.77;;
51618;SDS011;38518;53.164;5.430;2023-08-06T08:06:22;9.75;;;8.85;;
51618;SDS011;38518;53.164;5.430;2023-08-06T08:08:49;9.85;;;8.88;;
51618;SDS011;38518;53.164;5.430;2023-08-06T08:11:15;11.40;;;8.85;;
51618;SDS011;38518;53.164;5.430;2023-08-06T08:13:41;9.63;;;8.73;;
51618;SDS011;38518;53.164;5.430;2023-08-06T08:16:07;8.57;;;7.78;;
51618;SDS011;38518;53.164;5.430;2023-08-06T08:18:33;9.05;;;8.13;;
51618;SDS011;38518;53.164;5.430;2023-08-06T08:20:59;9.00;;;8.10;;
51618;SDS011;38518;53.164;5.430;2023-08-06T08:23:24;8.40;;;7.60;;
51618;SDS011;38518;53.164;5.430;2023-08-06T08:25:50;8.55;;;7.72;;
51618;SDS011;38518;53.164;5.430;2023-08-06T08:28:16;9.60;;;8.05;;
51618;SDS011;38518;53.164;5.430;2023-08-06T08:30:42;8.73;;;7.93;;
51618;SDS011;38518;53.164;5.430;2023-08-06T08:33:07;8.07;;;7.35;;
51618;SDS011;38518;53.164;5.430;2023-08-06T08:35:33;8.65;;;7.35;;
51618;SDS011;38518;53.164;5.430;2023-08-06T08:37:59;7.30;;;6.55;;
51618;SDS011;38518;53.164;5.430;2023-08-06T08:40:30;7.88;;;7.18;;
51618;SDS011;38518;53.164;5.430;2023-08-06T08:42:58;12.00;;;7.25;;
51618;SDS011;38518;53.164;5.430;2023-08-06T08:45:26;7.63;;;6.88;;
51618;SDS011;38518;53.164;5.430;2023-08-06T08:47:54;8.07;;;7.38;;
51618;SDS011;38518;53.164;5.430;2023-08-06T08:50:20;6.65;;;5.90;;
51618;SDS011;38518;53.164;5.430;2023-08-06T08:52:46;6.65;;;5.80;;
51618;SDS011;38518;53.164;5.430;2023-08-06T08:55:15;7.13;;;6.10;;
51618;SDS011;38518;53.164;5.430;2023-08-06T08:57:41;6.70;;;6.10;;
51618;SDS011;38518;53.164;5.430;2023-08-06T09:00:07;5.75;;;5.25;;
51618;SDS011;38518;53.164;5.430;2023-08-06T09:02:33;7.35;;;5.20;;
51618;SDS011;38518;53.164;5.430;2023-08-06T09:04:59;5.75;;;5.15;;
51618;SDS011;38518;53.164;5.430;2023-08-06T09:07:29;6.00;;;5.40;;
51618;SDS011;38518;53.164;5.430;2023-08-06T09:10:01;6.40;;;4.88;;
51618;SDS011;38518;53.164;5.430;2023-08-06T09:12:31;5.47;;;4.80;;
51618;SDS011;38518;53.164;5.430;2023-08-06T09:14:57;5.80;;;4.93;;
51618;SDS011;38518;53.164;5.430;2023-08-06T09:17:23;5.35;;;4.82;;
51618;SDS011;38518;53.164;5.430;2023-08-06T09:19:49;5.32;;;4.82;;
51618;SDS011;38518;53.164;5.430;2023-08-06T09:22:14;5.15;;;4.65;;
51618;SDS011;38518;53.164;5.430;2023-08-06T09:24:40;5.10;;;4.60;;
51618;SDS011;38518;53.164;5.430;2023-08-06T09:27:13;5.95;;;4.00;;
51618;SDS011;38518;53.164;5.430;2023-08-06T09:29:43;4.63;;;4.22;;
51618;SDS011;38518;53.164;5.430;2023-08-06T09:32:10;4.72;;;4.00;;
51618;SDS011;38518;53.164;5.430;2023-08-06T09:34:38;6.53;;;4.35;;
51618;SDS011;38518;53.164;5.430;2023-08-06T09:37:05;5.93;;;4.20;;
51618;SDS011;38518;53.164;5.430;2023-08-06T09:39:37;5.03;;;4.13;;
51618;SDS011;38518;53.164;5.430;2023-08-06T09:42:04;4.70;;;4.20;;
51618;SDS011;38518;53.164;5.430;2023-08-06T09:44:31;5.00;;;4.13;;
51618;SDS011;38518;53.164;5.430;2023-08-06T09:46:59;4.68;;;4.15;;
51618;SDS011;38518;53.164;5.430;2023-08-06T09:51:57;6.30;;;4.82;;
51618;SDS011;38518;53.164;5.430;2023-08-06T09:54:25;5.60;;;4.78;;
51618;SDS011;38518;53.164;5.430;2023-08-06T09:56:55;5.28;;;4.78;;
51618;SDS011;38518;53.164;5.430;2023-08-06T09:59:24;5.10;;;4.38;;
51618;SDS011;38518;53.164;5.430;2023-08-06T10:01:51;5.15;;;4.32;;
51618;SDS011;38518;53.164;5.430;2023-08-06T10:04:16;6.70;;;3.80;;
51618;SDS011;38518;53.164;5.430;2023-08-06T10:06:43;5.22;;;3.70;;
51618;SDS011;38518;53.164;5.430;2023-08-06T10:09:13;8.20;;;3.67;;
51618;SDS011;38518;53.164;5.430;2023-08-06T10:11:39;4.78;;;3.10;;
51618;SDS011;38518;53.164;5.430;2023-08-06T10:14:09;6.85;;;3.10;;
51618;SDS011;38518;53.164;5.430;2023-08-06T10:16:38;5.43;;;3.20;;
51618;SDS011;38518;53.164;5.430;2023-08-06T10:19:05;5.43;;;3.22;;
51618;SDS011;38518;53.164;5.430;2023-08-06T10:21:34;3.17;;;2.80;;
51618;SDS011;38518;53.164;5.430;2023-08-06T10:24:00;4.40;;;3.00;;
51618;SDS011;38518;53.164;5.430;2023-08-06T10:26:29;4.00;;;3.10;;
51618;SDS011;38518;53.164;5.430;2023-08-06T10:28:55;6.00;;;3.90;;
51618;SDS011;38518;53.164;5.430;2023-08-06T10:34:55;4.38;;;3.78;;
51618;SDS011;38518;53.164;5.430;2023-08-06T10:37:37;4.03;;;3.47;;
51618;SDS011;38518;53.164;5.430;2023-08-06T10:40:03;4.85;;;3.50;;
51618;SDS011;38518;53.164;5.430;2023-08-06T10:42:32;4.78;;;3.80;;
51618;SDS011;38518;53.164;5.430;2023-08-06T10:45:11;5.25;;;3.50;;
51618;SDS011;38518;53.164;5.430;2023-08-06T10:47:40;4.03;;;2.85;;
51618;SDS011;38518;53.164;5.430;2023-08-06T10:50:07;4.60;;;3.35;;
51618;SDS011;38518;53.164;5.430;2023-08-06T10:52:38;5.90;;;3.88;;
51618;SDS011;38518;53.164;5.430;2023-08-06T10:55:05;5.13;;;3.58;;
51618;SDS011;38518;53.164;5.430;2023-08-06T10:57:31;4.05;;;3.65;;
51618;SDS011;38518;53.164;5.430;2023-08-06T10:59:56;5.53;;;3.60;;
51618;SDS011;38518;53.164;5.430;2023-08-06T11:02:22;4.07;;;3.60;;
51618;SDS011;38518;53.164;5.430;2023-08-06T11:04:48;4.40;;;3.35;;
51618;SDS011;38518;53.164;5.430;2023-08-06T11:07:14;5.43;;;3.80;;
51618;SDS011;38518;53.164;5.430;2023-08-06T11:09:40;4.95;;;4.30;;
51618;SDS011;38518;53.164;5.430;2023-08-06T11:12:11;4.15;;;3.30;;
51618;SDS011;38518;53.164;5.430;2023-08-06T11:14:43;3.50;;;3.20;;
51618;SDS011;38518;53.164;5.430;2023-08-06T11:17:15;4.75;;;3.60;;
51618;SDS011;38518;53.164;5.430;2023-08-06T11:19:41;4.25;;;3.63;;
51618;SDS011;38518;53.164;5.430;2023-08-06T11:22:06;5.05;;;3.90;;
51618;SDS011;38518;53.164;5.430;2023-08-06T11:24:32;4.05;;;3.22;;
51618;SDS011;38518;53.164;5.430;2023-08-06T11:27:01;4.15;;;3.35;;
51618;SDS011;38518;53.164;5.430;2023-08-06T11:29:27;4.00;;;3.25;;
51618;SDS011;38518;53.164;5.430;2023-08-06T11:31:52;3.53;;;3.22;;
51618;SDS011;38518;53.164;5.430;2023-08-06T11:34:18;3.78;;;3.22;;
51618;SDS011;38518;53.164;5.430;2023-08-06T11:36:43;3.63;;;3.20;;
51618;SDS011;38518;53.164;5.430;2023-08-06T11:39:09;3.83;;;3.22;;
51618;SDS011;38518;53.164;5.430;2023-08-06T11:41:35;5.13;;;3.15;;
51618;SDS011;38518;53.164;5.430;2023-08-06T11:44:05;4.88;;;3.70;;
51618;SDS011;38518;53.164;5.430;2023-08-06T11:46:49;4.93;;;2.97;;
51618;SDS011;38518;53.164;5.430;2023-08-06T11:49:21;3.90;;;3.13;;
51618;SDS011;38518;53.164;5.430;2023-08-06T11:54:45;3.13;;;2.83;;
51618;SDS011;38518;53.164;5.430;2023-08-06T11:57:35;4.55;;;2.78;;
51618;SDS011;38518;53.164;5.430;2023-08-06T12:00:11;3.75;;;2.80;;
51618;SDS011;38518;53.164;5.430;2023-08-06T12:02:38;5.43;;;3.30;;
51618;SDS011;38518;53.164;5.430;2023-08-06T12:05:10;3.72;;;3.00;;
51618;SDS011;38518;53.164;5.430;2023-08-06T12:07:38;3.47;;;3.00;;
51618;SDS011;38518;53.164;5.430;2023-08-06T12:10:06;4.93;;;2.80;;
51618;SDS011;38518;53.164;5.430;2023-08-06T12:12:33;5.13;;;3.42;;
51618;SDS011;38518;53.164;5.430;2023-08-06T12:14:59;7.45;;;3.10;;
51618;SDS011;38518;53.164;5.430;2023-08-06T12:17:25;7.93;;;2.90;;
51618;SDS011;38518;53.164;5.430;2023-08-06T12:19:51;6.55;;;2.90;;
51618;SDS011;38518;53.164;5.430;2023-08-06T12:22:17;5.65;;;2.88;;
51618;SDS011;38518;53.164;5.430;2023-08-06T12:24:43;6.32;;;2.63;;
51618;SDS011;38518;53.164;5.430;2023-08-06T12:27:10;5.22;;;2.90;;
51618;SDS011;38518;53.164;5.430;2023-08-06T12:29:43;5.35;;;2.92;;
51618;SDS011;38518;53.164;5.430;2023-08-06T12:32:12;8.05;;;3.10;;
51618;SDS011;38518;53.164;5.430;2023-08-06T12:34:41;4.05;;;2.75;;
51618;SDS011;38518;53.164;5.430;2023-08-06T12:37:08;3.80;;;2.80;;
51618;SDS011;38518;53.164;5.430;2023-08-06T12:39:37;3.97;;;2.70;;
51618;SDS011;38518;53.164;5.430;2023-08-06T12:42:03;6.03;;;2.80;;
51618;SDS011;38518;53.164;5.430;2023-08-06T12:44:30;4.00;;;2.40;;
51618;SDS011;38518;53.164;5.430;2023-08-06T12:46:56;3.47;;;2.40;;
51618;SDS011;38518;53.164;5.430;2023-08-06T12:49:23;5.60;;;2.58;;
51618;SDS011;38518;53.164;5.430;2023-08-06T12:51:50;4.88;;;2.45;;
51618;SDS011;38518;53.164;5.430;2023-08-06T12:54:16;3.90;;;2.53;;
51618;SDS011;38518;53.164;5.430;2023-08-06T12:56:45;5.97;;;2.63;;
51618;SDS011;38518;53.164;5.430;2023-08-06T12:59:11;4.03;;;2.45;;
51618;SDS011;38518;53.164;5.430;2023-08-06T13:01:38;5.35;;;2.63;;
51618;SDS011;38518;53.164;5.430;2023-08-06T13:04:04;4.22;;;2.33;;
51618;SDS011;38518;53.164;5.430;2023-08-06T13:06:30;5.20;;;3.63;;
51618;SDS011;38518;53.164;5.430;2023-08-06T13:08:58;3.17;;;2.30;;
51618;SDS011;38518;53.164;5.430;2023-08-06T13:11:24;4.80;;;2.45;;
51618;SDS011;38518;53.164;5.430;2023-08-06T13:13:50;5.13;;;2.47;;
51618;SDS011;38518;53.164;5.430;2023-08-06T13:16:15;4.13;;;2.50;;
51618;SDS011;38518;53.164;5.430;2023-08-06T13:18:41;5.72;;;2.58;;
51618;SDS011;38518;53.164;5.430;2023-08-06T13:21:07;4.88;;;2.70;;
51618;SDS011;38518;53.164;5.430;2023-08-06T13:23:32;6.20;;;2.70;;
51618;SDS011;38518;53.164;5.430;2023-08-06T13:25:58;4.10;;;2.58;;
51618;SDS011;38518;53.164;5.430;2023-08-06T13:28:24;7.18;;;3.10;;
51618;SDS011;38518;53.164;5.430;2023-08-06T13:30:49;5.65;;;3.10;;
51618;SDS011;38518;53.164;5.430;2023-08-06T13:33:15;6.65;;;3.17;;
51618;SDS011;38518;53.164;5.430;2023-08-06T13:35:41;6.65;;;3.47;;
51618;SDS011;38518;53.164;5.430;2023-08-06T13:38:07;6.80;;;3.65;;
51618;SDS011;38518;53.164;5.430;2023-08-06T13:40:33;5.35;;;3.30;;
51618;SDS011;38518;53.164;5.430;2023-08-06T13:42:59;8.55;;;3.60;;
51618;SDS011;38518;53.164;5.430;2023-08-06T13:45:25;4.45;;;3.35;;
51618;SDS011;38518;53.164;5.430;2023-08-06T13:47:51;4.35;;;3.40;;
51618;SDS011;38518;53.164;5.430;2023-08-06T13:50:17;6.72;;;3.58;;
51618;SDS011;38518;53.164;5.430;2023-08-06T13:52:44;3.85;;;3.20;;
51618;SDS011;38518;53.164;5.430;2023-08-06T13:55:09;3.45;;;2.90;;
51618;SDS011;38518;53.164;5.430;2023-08-06T13:57:35;4.20;;;3.30;;
51618;SDS011;38518;53.164;5.430;2023-08-06T14:00:01;4.63;;;3.08;;
51618;SDS011;38518;53.164;5.430;2023-08-06T14:02:27;4.35;;;3.22;;
51618;SDS011;38518;53.164;5.430;2023-08-06T14:04:54;4.13;;;3.50;;
51618;SDS011;38518;53.164;5.430;2023-08-06T14:07:20;5.00;;;2.97;;
51618;SDS011;38518;53.164;5.430;2023-08-06T14:09:46;3.85;;;2.90;;
51618;SDS011;38518;53.164;5.430;2023-08-06T14:12:12;4.88;;;3.33;;
51618;SDS011;38518;53.164;5.430;2023-08-06T14:14:38;4.13;;;3.00;;
51618;SDS011;38518;53.164;5.430;2023-08-06T14:17:05;5.55;;;3.35;;
51618;SDS011;38518;53.164;5.430;2023-08-06T14:19:30;3.83;;;2.95;;
51618;SDS011;38518;53.164;5.430;2023-08-06T14:21:56;3.65;;;2.90;;
51618;SDS011;38518;53.164;5.430;2023-08-06T14:24:22;3.05;;;2.60;;
51618;SDS011;38518;53.164;5.430;2023-08-06T14:26:48;3.55;;;2.20;;
51618;SDS011;38518;53.164;5.430;2023-08-06T14:29:13;3.28;;;2.20;;
51618;SDS011;38518;53.164;5.430;2023-08-06T14:31:40;3.35;;;2.33;;
51618;SDS011;38518;53.164;5.430;2023-08-06T14:34:06;3.92;;;2.67;;
51618;SDS011;38518;53.164;5.430;2023-08-06T14:36:32;3.83;;;2.30;;
51618;SDS011;38518;53.164;5.430;2023-08-06T14:38:58;3.70;;;2.65;;
51618;SDS011;38518;53.164;5.430;2023-08-06T14:41:23;2.90;;;2.35;;
51618;SDS011;38518;53.164;5.430;2023-08-06T14:43:50;4.43;;;2.40;;
51618;SDS011;38518;53.164;5.430;2023-08-06T14:46:16;4.45;;;2.65;;